createdAt,value
2022-09-12T00:00:28.637Z,10.70
2022-09-12T00:03:21.181Z,10.70
2022-09-12T00:05:53.913Z,10.70
2022-09-12T00:08:26.833Z,10.70
2022-09-12T00:11:05.641Z,10.60
2022-09-12T00:13:41.671Z,10.60
2022-09-12T00:16:21.297Z,10.60
2022-09-12T00:18:54.413Z,10.60
2022-09-12T00:21:27.705Z,10.60
2022-09-12T00:24:00.315Z,10.70
2022-09-12T00:26:33.501Z,10.60
2022-09-12T00:29:06.065Z,10.60
2022-09-12T00:31:39.177Z,10.70
2022-09-12T00:34:12.646Z,10.70
2022-09-12T00:36:45.485Z,10.60
2022-09-12T00:39:18.206Z,10.60
2022-09-12T00:41:51.035Z,10.60
2022-09-12T00:44:23.637Z,10.60
2022-09-12T00:47:02.197Z,10.60
2022-09-12T00:49:49.782Z,10.60
2022-09-12T00:52:36.029Z,10.60
2022-09-12T00:55:15.712Z,10.60
2022-09-12T00:57:54.462Z,10.60
2022-09-12T01:00:28.207Z,10.60
2022-09-12T01:03:07.873Z,10.60
2022-09-12T01:05:47.006Z,10.60
2022-09-12T01:08:20.489Z,10.60
2022-09-12T01:10:53.285Z,10.60
2022-09-12T01:13:27.081Z,10.60
2022-09-12T01:15:59.789Z,10.60
2022-09-12T01:18:57.889Z,10.60
2022-09-12T01:21:39.246Z,10.60
2022-09-12T01:24:33.601Z,10.60
2022-09-12T01:27:06.205Z,10.70
2022-09-12T01:30:00.719Z,10.60
2022-09-12T01:32:48.618Z,10.60
2022-09-12T01:35:58.579Z,10.60
2022-09-12T01:38:47.332Z,10.60
2022-09-12T01:41:26.797Z,10.60
2022-09-12T01:44:08.142Z,10.60
2022-09-12T01:46:56.013Z,10.60
2022-09-12T01:50:05.216Z,10.60
2022-09-12T01:52:47.295Z,10.60
2022-09-12T01:55:25.706Z,10.50
2022-09-12T01:58:12.079Z,10.50
2022-09-12T02:00:55.468Z,10.50
2022-09-12T02:03:33.849Z,10.50
2022-09-12T02:06:18.591Z,10.50
2022-09-12T02:08:55.181Z,10.50
2022-09-12T02:11:31.771Z,10.50
2022-09-12T02:14:15.797Z,10.50
2022-09-12T02:17:16.767Z,10.40
2022-09-12T02:19:54.963Z,10.40
2022-09-12T02:22:29.663Z,10.40
2022-09-12T02:25:05.967Z,10.40
2022-09-12T02:27:42.556Z,10.40
2022-09-12T02:30:16.759Z,10.40
2022-09-12T02:32:58.858Z,10.30
2022-09-12T02:35:48.072Z,10.30
2022-09-12T02:38:45.428Z,10.30
2022-09-12T02:41:20.779Z,10.20
2022-09-12T02:43:54.610Z,10.20
2022-09-12T02:46:41.199Z,10.20
2022-09-12T02:49:14.723Z,10.20
2022-09-12T02:51:48.855Z,10.20
2022-09-12T02:54:21.827Z,10.20
2022-09-12T02:56:54.597Z,10.20
2022-09-12T02:59:27.432Z,10.10
2022-09-12T03:02:12.391Z,10.10
2022-09-12T03:05:23.328Z,10.10
2022-09-12T03:08:05.384Z,10.10
2022-09-12T03:10:48.513Z,10.10
2022-09-12T03:13:33.209Z,10.10
2022-09-12T03:16:29.751Z,10.10
2022-09-12T03:19:21.356Z,10.00
2022-09-12T03:22:00.253Z,10.00
2022-09-12T03:24:57.681Z,9.90
2022-09-12T03:27:35.337Z,10.00
2022-09-12T03:30:09.158Z,10.00
2022-09-12T03:32:50.519Z,9.90
2022-09-12T03:35:25.184Z,9.90
2022-09-12T03:37:57.824Z,9.90
2022-09-12T03:40:30.637Z,9.90
2022-09-12T03:43:04.944Z,9.90
2022-09-12T03:45:38.833Z,9.90
2022-09-12T03:48:11.976Z,9.90
2022-09-12T03:50:44.793Z,9.90
2022-09-12T03:53:17.614Z,9.90
2022-09-12T03:55:50.429Z,10.00
2022-09-12T03:58:23.409Z,10.00
2022-09-12T04:00:56.436Z,10.00
2022-09-12T04:03:29.013Z,10.00
2022-09-12T04:06:02.074Z,10.00
2022-09-12T04:08:35.953Z,9.90
2022-09-12T04:11:12.556Z,10.00
2022-09-12T04:13:46.183Z,9.90
2022-09-12T04:16:19.486Z,9.90
2022-09-12T04:18:52.110Z,9.90
2022-09-12T04:21:25.096Z,10.00
2022-09-12T04:23:57.698Z,10.00
2022-09-12T04:26:32.294Z,10.00
2022-09-12T04:29:04.898Z,10.00
2022-09-12T04:31:37.728Z,10.00
2022-09-12T04:34:10.698Z,10.00
2022-09-12T04:36:43.609Z,10.10
2022-09-12T04:39:17.125Z,10.10
2022-09-12T04:41:50.154Z,10.20
2022-09-12T04:44:22.690Z,10.20
2022-09-12T04:46:55.514Z,10.20
2022-09-12T04:49:28.109Z,10.30
2022-09-12T04:52:00.899Z,10.30
2022-09-12T04:54:34.372Z,10.40
2022-09-12T04:57:07.441Z,10.40
2022-09-12T04:59:40.479Z,10.50
2022-09-12T05:02:13.393Z,10.50
2022-09-12T05:04:47.027Z,10.60
2022-09-12T05:07:20.088Z,10.60
2022-09-12T05:09:52.844Z,10.70
2022-09-12T05:12:25.600Z,10.70
2022-09-12T05:14:58.159Z,10.80
2022-09-12T05:17:31.115Z,10.80
2022-09-12T05:20:04.390Z,10.80
2022-09-12T05:22:37.148Z,10.90
2022-09-12T05:25:09.947Z,11.00
2022-09-12T05:27:43.502Z,11.10
2022-09-12T05:30:18.097Z,11.20
2022-09-12T05:32:50.977Z,11.20
2022-09-12T05:35:23.629Z,11.30
2022-09-12T05:37:56.541Z,11.40
2022-09-12T05:40:31.646Z,11.50
2022-09-12T05:43:04.994Z,11.50
2022-09-12T05:45:37.801Z,11.50
2022-09-12T05:48:10.534Z,11.60
2022-09-12T05:50:43.753Z,11.60
2022-09-12T05:53:17.395Z,11.60
2022-09-12T05:55:53.892Z,11.70
2022-09-12T05:58:34.501Z,11.80
2022-09-12T06:01:11.532Z,11.80
2022-09-12T06:03:49.687Z,11.90
2022-09-12T06:06:25.371Z,12.00
2022-09-12T06:09:03.739Z,12.00
2022-09-12T06:11:40.846Z,12.10
2022-09-12T06:14:18.014Z,12.10
2022-09-12T06:16:53.792Z,12.20
2022-09-12T06:19:34.486Z,12.30
2022-09-12T06:22:07.295Z,12.40
2022-09-12T06:24:40.123Z,12.40
2022-09-12T06:27:12.626Z,12.50
2022-09-12T06:29:46.113Z,12.60
2022-09-12T06:32:18.674Z,12.60
2022-09-12T06:34:52.070Z,12.70
2022-09-12T06:37:24.708Z,12.80
2022-09-12T06:39:57.741Z,12.90
2022-09-12T06:42:30.306Z,13.00
2022-09-12T06:45:03.114Z,13.10
2022-09-12T06:47:35.682Z,13.20
2022-09-12T06:50:09.170Z,13.20
2022-09-12T06:52:41.738Z,13.30
2022-09-12T06:55:18.927Z,13.40
2022-09-12T06:57:54.367Z,13.50
2022-09-12T07:00:28.162Z,13.60
2022-09-12T07:03:00.674Z,13.80
2022-09-12T07:05:34.249Z,13.80
2022-09-12T07:08:06.785Z,13.90
2022-09-12T07:10:39.605Z,14.00
2022-09-12T07:13:12.150Z,14.10
2022-09-12T07:15:45.302Z,14.20
2022-09-12T07:18:17.867Z,14.30
2022-09-12T07:20:50.566Z,14.30
2022-09-12T07:23:23.084Z,14.40
2022-09-12T07:25:57.265Z,14.50
2022-09-12T07:28:34.452Z,14.50
2022-09-12T07:31:14.497Z,14.60
2022-09-12T07:33:51.171Z,14.70
2022-09-12T07:36:26.631Z,14.80
2022-09-12T07:38:59.596Z,14.90
2022-09-12T07:41:36.402Z,15.00
2022-09-12T07:44:08.954Z,15.10
2022-09-12T07:46:41.717Z,15.10
2022-09-12T07:49:14.289Z,15.10
2022-09-12T07:51:47.034Z,15.20
2022-09-12T07:54:19.955Z,15.30
2022-09-12T07:56:52.913Z,15.40
2022-09-12T07:59:48.916Z,15.50
2022-09-12T08:02:18.605Z,15.50
2022-09-12T08:04:51.567Z,15.60
2022-09-12T08:07:24.338Z,15.60
2022-09-12T08:09:57.593Z,15.70
2022-09-12T08:12:32.310Z,15.90
2022-09-12T08:15:05.482Z,16.00
2022-09-12T08:17:38.678Z,16.00
2022-09-12T08:20:12.322Z,16.10
2022-09-12T08:22:45.326Z,16.10
2022-09-12T08:25:18.014Z,16.10
2022-09-12T08:27:50.807Z,16.20
2022-09-12T08:30:23.557Z,16.30
2022-09-12T08:32:56.811Z,16.40
2022-09-12T08:35:29.375Z,16.50
2022-09-12T08:38:02.109Z,16.50
2022-09-12T08:40:48.650Z,16.60
2022-09-12T08:43:36.447Z,16.70
2022-09-12T08:46:18.536Z,16.80
2022-09-12T08:48:52.557Z,16.90
2022-09-12T08:51:25.566Z,17.00
2022-09-12T08:54:00.569Z,17.00
2022-09-12T08:56:37.149Z,17.10
2022-09-12T08:59:10.588Z,17.20
2022-09-12T09:01:45.564Z,17.30
2022-09-12T09:04:33.677Z,17.30
2022-09-12T09:07:18.544Z,17.30
2022-09-12T09:10:00.424Z,17.50
2022-09-12T09:12:38.765Z,17.60
2022-09-12T09:15:29.650Z,17.60
2022-09-12T09:18:24.104Z,17.50
2022-09-12T09:21:06.921Z,17.50
2022-09-12T09:23:44.362Z,17.70
2022-09-12T09:26:29.677Z,17.70
2022-09-12T09:29:18.854Z,17.70
2022-09-12T09:31:57.827Z,17.70
2022-09-12T09:34:34.374Z,17.80
2022-09-12T09:37:16.373Z,17.80
2022-09-12T09:40:07.444Z,17.80
2022-09-12T09:42:54.019Z,18.00
2022-09-12T09:45:29.788Z,18.00
2022-09-12T09:48:26.717Z,17.90
2022-09-12T09:51:01.961Z,17.90
2022-09-12T09:53:46.857Z,18.10
2022-09-12T09:56:33.253Z,18.40
2022-09-12T09:59:10.313Z,18.50
2022-09-12T10:02:03.877Z,18.30
2022-09-12T10:04:41.851Z,17.90
2022-09-12T10:07:19.909Z,17.80
2022-09-12T10:10:15.397Z,17.90
2022-09-12T10:12:47.956Z,18.10
2022-09-12T10:15:26.634Z,18.20
2022-09-12T10:18:00.097Z,18.30
2022-09-12T10:20:39.133Z,18.40
2022-09-12T10:23:34.934Z,18.30
2022-09-12T10:26:15.084Z,18.50
2022-09-12T10:28:53.551Z,18.60
2022-09-12T10:31:43.158Z,18.80
2022-09-12T10:34:43.972Z,18.90
2022-09-12T10:37:34.792Z,19.00
2022-09-12T10:40:22.077Z,18.80
2022-09-12T10:42:55.134Z,18.70
2022-09-12T10:45:37.492Z,18.70
2022-09-12T10:48:31.745Z,18.80
2022-09-12T10:51:04.425Z,19.00
2022-09-12T10:53:43.697Z,19.10
2022-09-12T10:56:22.808Z,19.40
2022-09-12T10:59:01.375Z,19.40
2022-09-12T11:01:36.934Z,19.10
2022-09-12T11:04:31.601Z,19.00
2022-09-12T11:07:41.588Z,19.10
2022-09-12T11:10:36.780Z,19.10
2022-09-12T11:13:31.376Z,19.00
2022-09-12T11:16:51.049Z,18.90
2022-09-12T11:19:51.015Z,18.90
2022-09-12T11:22:47.540Z,18.60
2022-09-12T11:25:39.436Z,18.60
2022-09-12T11:28:30.910Z,18.60
2022-09-12T11:31:23.521Z,18.70
2022-09-12T11:33:59.596Z,18.80
2022-09-12T11:37:12.577Z,19.00
2022-09-12T11:39:55.376Z,19.30
2022-09-12T11:42:37.920Z,19.30
2022-09-12T11:45:18.444Z,19.30
2022-09-12T11:47:55.853Z,19.30
2022-09-12T11:50:31.284Z,19.20
2022-09-12T11:53:23.972Z,19.30
2022-09-12T11:56:04.513Z,19.60
2022-09-12T11:58:38.730Z,19.80
2022-09-12T12:01:47.784Z,19.70
2022-09-12T12:04:28.236Z,19.50
2022-09-12T12:07:08.057Z,19.50
2022-09-12T12:09:52.266Z,19.40
2022-09-12T12:12:28.772Z,19.40
2022-09-12T12:15:02.931Z,19.50
2022-09-12T12:17:35.810Z,19.70
2022-09-12T12:20:17.988Z,19.90
2022-09-12T12:22:55.277Z,19.90
2022-09-12T12:25:51.588Z,19.80
2022-09-12T12:28:42.649Z,19.60
2022-09-12T12:31:15.853Z,19.40
2022-09-12T12:33:52.129Z,19.50
2022-09-12T12:36:40.404Z,19.60
2022-09-12T12:40:01.303Z,19.50
2022-09-12T12:42:57.877Z,19.40
2022-09-12T12:45:30.580Z,19.50
2022-09-12T12:48:11.374Z,19.60
2022-09-12T12:50:45.437Z,19.70
2022-09-12T12:53:20.231Z,19.80
2022-09-12T12:55:56.212Z,19.80
2022-09-12T12:58:37.565Z,19.70
2022-09-12T13:01:18.091Z,19.60
2022-09-12T13:03:55.932Z,19.50
2022-09-12T13:06:41.605Z,19.60
2022-09-12T13:09:34.084Z,19.80
2022-09-12T13:12:11.356Z,19.70
2022-09-12T13:14:43.928Z,19.80
2022-09-12T13:17:34.683Z,19.80
2022-09-12T13:20:29.573Z,19.60
2022-09-12T13:23:02.632Z,19.60
2022-09-12T13:25:37.114Z,19.50
2022-09-12T13:28:13.038Z,19.60
2022-09-12T13:30:48.723Z,19.80
2022-09-12T13:33:40.087Z,20.10
2022-09-12T13:36:24.915Z,20.20
2022-09-12T13:39:01.051Z,20.30
2022-09-12T13:41:56.255Z,20.30
2022-09-12T13:44:34.704Z,20.30
2022-09-12T13:47:25.869Z,20.30
2022-09-12T13:49:59.366Z,20.10
2022-09-12T13:52:35.492Z,20.00
2022-09-12T13:55:23.487Z,19.90
2022-09-12T13:58:01.621Z,19.80
2022-09-12T14:00:35.153Z,19.80
2022-09-12T14:03:49.940Z,19.70
2022-09-12T14:06:23.246Z,19.70
2022-09-12T14:09:01.492Z,19.70
2022-09-12T14:11:37.580Z,19.70
2022-09-12T14:14:27.844Z,19.70
2022-09-12T14:17:00.712Z,19.70
2022-09-12T14:19:34.572Z,19.70
2022-09-12T14:22:12.108Z,19.70
2022-09-12T14:24:51.880Z,19.80
2022-09-12T14:27:28.472Z,19.80
2022-09-12T14:30:06.927Z,19.80
2022-09-12T14:32:40.319Z,19.60
2022-09-12T14:35:19.938Z,19.50
2022-09-12T14:37:53.961Z,19.40
2022-09-12T14:40:26.705Z,19.40
2022-09-12T14:43:01.259Z,19.40
2022-09-12T14:45:33.972Z,19.60
2022-09-12T14:48:06.956Z,19.60
2022-09-12T14:50:39.573Z,19.70
2022-09-12T14:53:18.620Z,19.70
2022-09-12T14:56:09.256Z,19.60
2022-09-12T14:58:42.512Z,19.50
2022-09-12T15:01:15.120Z,19.50
2022-09-12T15:03:50.001Z,19.60
2022-09-12T15:06:32.193Z,19.60
2022-09-12T15:09:12.537Z,19.70
2022-09-12T15:11:45.142Z,19.60
2022-09-12T15:14:18.657Z,19.70
2022-09-12T15:16:51.219Z,19.70
2022-09-12T15:19:23.999Z,19.70
2022-09-12T15:21:56.631Z,19.70
2022-09-12T15:24:29.440Z,19.80
2022-09-12T15:27:02.228Z,20.30
2022-09-12T15:29:38.415Z,20.70
2022-09-12T15:32:15.149Z,21.30
2022-09-12T15:34:50.861Z,21.80
2022-09-12T15:37:24.692Z,22.30
2022-09-12T15:39:57.718Z,22.60
2022-09-12T15:42:31.422Z,22.90
2022-09-12T15:45:18.916Z,23.30
2022-09-12T15:47:51.969Z,23.90
2022-09-12T15:50:25.451Z,24.30
2022-09-12T15:52:59.054Z,24.80
2022-09-12T15:55:34.704Z,25.10
2022-09-12T15:58:10.790Z,25.50
2022-09-12T16:00:43.673Z,25.80
2022-09-12T16:03:22.498Z,25.90
2022-09-12T16:06:01.137Z,25.90
2022-09-12T16:08:34.713Z,26.40
2022-09-12T16:11:27.618Z,26.50
2022-09-12T16:14:00.132Z,26.80
2022-09-12T16:16:34.112Z,26.80
2022-09-12T16:19:06.790Z,26.80
2022-09-12T16:21:39.568Z,26.90
2022-09-12T16:24:12.553Z,26.90
2022-09-12T16:26:45.373Z,26.70
2022-09-12T16:29:18.045Z,26.30
2022-09-12T16:31:50.869Z,26.00
2022-09-12T16:34:23.663Z,25.70
2022-09-12T16:36:56.783Z,25.00
2022-09-12T16:39:30.038Z,24.30
2022-09-12T16:42:03.351Z,23.40
2022-09-12T16:44:35.905Z,22.50
2022-09-12T16:47:08.739Z,21.70
2022-09-12T16:49:41.321Z,20.80
2022-09-12T16:52:16.668Z,20.20
2022-09-12T16:54:49.419Z,19.70
2022-09-12T16:57:22.843Z,19.20
2022-09-12T16:59:55.355Z,18.80
2022-09-12T17:02:28.122Z,18.50
2022-09-12T17:05:00.787Z,18.30
2022-09-12T17:07:34.926Z,18.10
2022-09-12T17:10:08.536Z,17.90
2022-09-12T17:12:41.300Z,17.60
2022-09-12T17:15:14.529Z,17.50
2022-09-12T17:17:47.337Z,17.30
2022-09-12T17:20:19.898Z,17.10
2022-09-12T17:22:52.928Z,16.90
2022-09-12T17:25:27.871Z,16.80
2022-09-12T17:28:00.619Z,16.60
2022-09-12T17:30:37.301Z,16.30
2022-09-12T17:33:10.925Z,16.00
2022-09-12T17:35:43.718Z,15.70
2022-09-12T17:38:19.344Z,15.60
2022-09-12T17:40:59.588Z,15.40
2022-09-12T17:43:33.547Z,15.20
2022-09-12T17:46:06.667Z,15.10
2022-09-12T17:48:39.531Z,14.90
2022-09-12T17:51:14.362Z,14.80
2022-09-12T17:53:47.603Z,14.70
2022-09-12T17:56:20.381Z,14.60
2022-09-12T17:58:53.184Z,14.50
2022-09-12T18:01:45.816Z,14.40
2022-09-12T18:04:20.166Z,14.30
2022-09-12T18:06:54.130Z,14.20
2022-09-12T18:09:37.337Z,14.10
2022-09-12T18:12:10.619Z,14.10
2022-09-12T18:14:43.597Z,14.00
2022-09-12T18:17:16.803Z,13.90
2022-09-12T18:19:53.740Z,13.90
2022-09-12T18:22:26.641Z,13.80
2022-09-12T18:24:59.421Z,13.70
2022-09-12T18:27:32.117Z,13.60
2022-09-12T18:30:20.607Z,13.50
2022-09-12T18:32:54.302Z,13.50
2022-09-12T18:35:27.398Z,13.30
2022-09-12T18:38:00.002Z,13.20
2022-09-12T18:40:32.801Z,13.20
2022-09-12T18:43:05.473Z,13.10
2022-09-12T18:45:38.213Z,13.00
2022-09-12T18:48:11.138Z,13.00
2022-09-12T18:50:44.013Z,13.00
2022-09-12T18:53:16.705Z,12.90
2022-09-12T18:55:49.495Z,12.80
2022-09-12T18:58:22.023Z,12.80
2022-09-12T19:00:54.841Z,12.70
2022-09-12T19:03:27.533Z,12.70
2022-09-12T19:06:01.577Z,12.70
2022-09-12T19:08:35.160Z,12.70
2022-09-12T19:11:09.329Z,12.60
2022-09-12T19:13:44.945Z,12.50
2022-09-12T19:16:21.838Z,12.60
2022-09-12T19:18:58.621Z,12.50
2022-09-12T19:21:32.284Z,12.40
2022-09-12T19:24:10.132Z,12.50
2022-09-12T19:26:43.112Z,12.40
2022-09-12T19:29:16.746Z,12.50
2022-09-12T19:31:49.733Z,12.40
2022-09-12T19:34:22.318Z,12.30
2022-09-12T19:36:55.043Z,12.20
2022-09-12T19:39:27.703Z,12.20
2022-09-12T19:42:00.432Z,12.10
2022-09-12T19:44:32.970Z,12.10
2022-09-12T19:47:05.726Z,12.10
2022-09-12T19:49:38.257Z,12.00
2022-09-12T19:52:14.349Z,12.00
2022-09-12T19:54:49.434Z,11.90
2022-09-12T19:57:22.188Z,11.80
2022-09-12T19:59:55.533Z,11.80
2022-09-12T20:02:29.945Z,11.70
2022-09-12T20:05:02.528Z,11.70
2022-09-12T20:07:36.332Z,11.60
2022-09-12T20:10:18.770Z,11.70
2022-09-12T20:12:53.103Z,11.70
2022-09-12T20:15:25.694Z,11.70
2022-09-12T20:17:59.128Z,11.60
2022-09-12T20:20:31.838Z,11.50
2022-09-12T20:23:04.979Z,11.50
2022-09-12T20:25:37.846Z,11.50
2022-09-12T20:28:10.560Z,11.30
2022-09-12T20:30:43.127Z,11.40
2022-09-12T20:33:15.856Z,11.40
2022-09-12T20:35:48.401Z,11.50
2022-09-12T20:38:21.182Z,11.40
2022-09-12T20:40:53.882Z,11.40
2022-09-12T20:43:26.855Z,11.40
2022-09-12T20:45:59.597Z,11.40
2022-09-12T20:48:32.852Z,11.30
2022-09-12T20:51:06.594Z,11.30
2022-09-12T20:53:40.524Z,11.10
2022-09-12T20:56:14.582Z,11.00
2022-09-12T20:58:47.466Z,10.90
2022-09-12T21:01:20.670Z,10.80
2022-09-12T21:03:54.033Z,10.70
2022-09-12T21:06:27.091Z,10.50
2022-09-12T21:09:00.613Z,10.40
2022-09-12T21:11:33.411Z,10.30
2022-09-12T21:14:06.146Z,10.20
2022-09-12T21:16:38.801Z,10.10
2022-09-12T21:19:11.484Z,10.00
2022-09-12T21:21:44.018Z,9.90
2022-09-12T21:24:16.774Z,9.80
2022-09-12T21:26:49.346Z,9.90
2022-09-12T21:29:22.050Z,9.90
2022-09-12T21:31:54.604Z,9.90
2022-09-12T21:34:27.359Z,9.90
2022-09-12T21:36:59.953Z,9.90
2022-09-12T21:39:32.774Z,9.80
2022-09-12T21:42:05.464Z,9.90
2022-09-12T21:44:38.252Z,9.90
2022-09-12T21:47:10.817Z,9.90
2022-09-12T21:49:43.610Z,9.80
2022-09-12T21:52:16.127Z,9.70
2022-09-12T21:54:48.881Z,9.60
2022-09-12T21:57:21.493Z,9.60
2022-09-12T21:59:54.238Z,9.60
2022-09-12T22:02:28.462Z,9.60
2022-09-12T22:05:01.197Z,9.60
2022-09-12T22:07:33.872Z,9.70
2022-09-12T22:10:07.578Z,9.60
2022-09-12T22:12:45.353Z,9.50
2022-09-12T22:15:39.465Z,9.40
2022-09-12T22:18:12.062Z,9.30
2022-09-12T22:20:45.292Z,9.30
2022-09-12T22:23:36.384Z,9.30
2022-09-12T22:26:09.151Z,9.20
2022-09-12T22:28:42.752Z,9.20
2022-09-12T22:31:16.465Z,9.30
2022-09-12T22:33:49.361Z,9.20
2022-09-12T22:36:22.104Z,9.20
2022-09-12T22:38:56.204Z,9.00
2022-09-12T22:41:29.246Z,9.00
2022-09-12T22:44:01.955Z,8.90
2022-09-12T22:46:34.815Z,8.80
2022-09-12T22:49:07.609Z,8.80
2022-09-12T22:51:40.487Z,8.80
2022-09-12T22:54:13.143Z,8.80
2022-09-12T22:56:45.872Z,8.70
2022-09-12T22:59:18.424Z,8.70
2022-09-12T23:01:51.220Z,8.70
2022-09-12T23:04:23.761Z,8.60
2022-09-12T23:06:56.762Z,8.60
2022-09-12T23:09:32.140Z,8.50
2022-09-12T23:12:08.024Z,8.40
2022-09-12T23:14:40.577Z,8.40
2022-09-12T23:17:13.379Z,8.30
2022-09-12T23:19:46.077Z,8.30
2022-09-12T23:22:19.085Z,8.30
2022-09-12T23:24:51.612Z,8.20
2022-09-12T23:27:27.439Z,8.20
2022-09-12T23:29:59.984Z,8.20
2022-09-12T23:32:32.916Z,8.30
2022-09-12T23:35:05.844Z,8.30
2022-09-12T23:37:38.543Z,8.30
2022-09-12T23:40:11.396Z,8.20
2022-09-12T23:42:44.208Z,8.20
2022-09-12T23:45:16.825Z,8.10
2022-09-12T23:47:49.547Z,8.00
2022-09-12T23:50:22.055Z,8.00
2022-09-12T23:52:55.038Z,8.10
2022-09-12T23:55:27.560Z,8.10
2022-09-12T23:58:00.405Z,8.10
